Time;durP1;ratioP1;P1;durP2;ratioP2;P2;SDS_P1;SDS_P2;PMS_P1;PMS_P2;Temp;Humidity;BMP_temperature;BMP_pressure;BME280_temperature;BME280_humidity;BME280_pressure;Samples;Min_cycle;Max_cycle;Signal;HPM_P1;HPM_P2
2022/07/11 00:01:41;;;;;;;;;;;;;;;;;;5035974;28;19925;-78
2022/07/11 00:04:08;;;;;;;;;;;;;;;;;;5033551;28;20012;-78
2022/07/11 00:06:34;;;;;;;;;;;;;;;;;;5033825;28;19964;-77
2022/07/11 00:09:01;;;;;;;;;;;;;;;;;;5033697;28;19967;-78
2022/07/11 00:11:27;;;;;;;;;;;;;;;;;;5036723;28;20019;-79
2022/07/11 00:13:54;;;;;;;;;;;;;;;;;;5038742;28;19925;-78
2022/07/11 00:16:22;;;;;;;;;;;;;;;;;;5037786;28;19932;-78
2022/07/11 00:18:48;;;;;;;;;;;;;;;;;;5040226;28;19929;-77
2022/07/11 00:21:15;;;;;;;;;;;;;;;;;;5037270;28;20024;-78
2022/07/11 00:23:41;;;;;;;;;;;;;;;;;;5040206;28;19932;-78
2022/07/11 00:26:11;;;;;;;;;;;;;;;;;;5039758;28;20315;-79
2022/07/11 00:28:39;;;;;;;;;;;;;;;;;;5045654;28;19967;-78
2022/07/11 00:31:07;;;;;;;;;;;;;;;;;;5036062;28;19932;-77
2022/07/11 00:33:37;;;;;;;;;;;;;;;;;;5035802;28;19987;-78
2022/07/11 00:36:04;;;;;;;;;;;;;;;;;;5035533;28;19925;-77
2022/07/11 00:38:30;;;;;;;;;;;;;;;;;;5035970;28;19925;-78
2022/07/11 00:40:57;;;;;;;;;;;;;;;;;;5035747;28;20346;-77
2022/07/11 00:43:30;;;;;;;;;;;;;;;;;;5035437;28;20376;-78
2022/07/11 00:45:56;;;;;;;;;;;;;;;;;;5035617;28;19929;-77
2022/07/11 00:48:23;;;;;;;;;;;;;;;;;;5035290;28;20484;-77
2022/07/11 00:50:51;;;;;;;;;;;;;;;;;;5035518;28;20295;-79
2022/07/11 00:53:18;;;;;;;;;;;;;;;;;;5035466;28;19925;-78
2022/07/11 00:55:44;;;;;;;;;;;;;;;;;;5035362;28;19926;-77
2022/07/11 00:58:12;;;;;;;;;;;;;;;;;;5035235;28;19925;-78
2022/07/11 01:00:39;;;;;;;;;;;;;;;;;;5035417;28;19928;-78
2022/07/11 01:03:05;;;;;;;;;;;;;;;;;;5035312;28;20480;-78
2022/07/11 01:05:32;;;;;;;;;;;;;;;;;;5035001;28;20391;-78
2022/07/11 01:08:00;;;;;;;;;;;;;;;;;;5035025;28;19928;-77
2022/07/11 01:10:27;;;;;;;;;;;;;;;;;;5036043;28;20384;-78
2022/07/11 01:12:54;;;;;;;;;;;;;;;;;;5034936;28;20396;-77
2022/07/11 01:15:20;;;;;;;;;;;;;;;;;;5035068;28;19975;-79
2022/07/11 01:17:47;;;;;;;;;;;;;;;;;;5035308;28;19929;-77
2022/07/11 01:20:13;;;;;;;;;;;;;;;;;;5034772;28;19975;-77
2022/07/11 01:22:41;;;;;;;;;;;;;;;;;;5034535;28;19925;-77
2022/07/11 01:25:09;;;;;;;;;;;;;;;;;;5034633;28;19932;-77
2022/07/11 01:27:36;;;;;;;;;;;;;;;;;;5035070;28;20024;-77
2022/07/11 01:30:02;;;;;;;;;;;;;;;;;;5034693;28;20376;-78
2022/07/11 01:32:29;;;;;;;;;;;;;;;;;;5034751;28;20474;-78
2022/07/11 01:34:55;;;;;;;;;;;;;;;;;;5034710;28;20347;-78
2022/07/11 01:37:22;;;;;;;;;;;;;;;;;;5034319;28;20000;-77
2022/07/11 01:39:48;;;;;;;;;;;;;;;;;;5034339;28;19994;-77
2022/07/11 01:42:16;;;;;;;;;;;;;;;;;;5034421;28;20008;-78
2022/07/11 01:44:42;;;;;;;;;;;;;;;;;;5034809;28;19925;-78
2022/07/11 01:47:09;;;;;;;;;;;;;;;;;;5034527;28;19983;-78
2022/07/11 01:49:35;;;;;;;;;;;;;;;;;;5034515;28;20011;-75
2022/07/11 01:52:02;;;;;;;;;;;;;;;;;;5034910;28;19964;-77
2022/07/11 01:54:28;;;;;;;;;;;;;;;;;;5035167;28;20299;-77
2022/07/11 01:56:55;;;;;;;;;;;;;;;;;;5034743;28;20400;-76
2022/07/11 01:59:23;;;;;;;;;;;;;;;;;;5034937;28;19932;-78
2022/07/11 02:01:49;;;;;;;;;;;;;;;;;;5034785;28;19940;-77
2022/07/11 02:04:15;;;;;;;;;;;;;;;;;;5034319;28;20277;-76
2022/07/11 02:06:42;;;;;;;;;;;;;;;;;;5034120;28;19932;-77
2022/07/11 02:09:08;;;;;;;;;;;;;;;;;;5034137;28;20425;-77
2022/07/11 02:11:35;;;;;;;;;;;;;;;;;;5034104;28;19949;-77
2022/07/11 02:14:02;;;;;;;;;;;;;;;;;;5034228;28;20325;-76
2022/07/11 02:16:30;;;;;;;;;;;;;;;;;;5034319;28;19955;-76
2022/07/11 02:18:56;;;;;;;;;;;;;;;;;;5034623;28;19961;-76
2022/07/11 02:21:23;;;;;;;;;;;;;;;;;;5034188;28;20004;-77
2022/07/11 02:23:49;;;;;;;;;;;;;;;;;;5034367;28;20016;-77
2022/07/11 02:26:16;;;;;;;;;;;;;;;;;;5034045;28;19948;-77
2022/07/11 02:28:42;;;;;;;;;;;;;;;;;;5036628;28;20288;-77
2022/07/11 02:31:09;;;;;;;;;;;;;;;;;;5035635;28;20289;-76
2022/07/11 02:33:37;;;;;;;;;;;;;;;;;;5033997;28;19932;-78
2022/07/11 02:36:03;;;;;;;;;;;;;;;;;;5036514;28;19964;-78
2022/07/11 02:38:30;;;;;;;;;;;;;;;;;;5038860;28;19925;-79
2022/07/11 02:40:58;;;;;;;;;;;;;;;;;;5039142;28;19987;-79
2022/07/11 02:43:25;;;;;;;;;;;;;;;;;;5039343;28;19932;-78
2022/07/11 02:45:51;;;;;;;;;;;;;;;;;;5035615;28;20012;-78
2022/07/11 02:48:18;;;;;;;;;;;;;;;;;;5037884;28;19971;-78
2022/07/11 02:50:46;;;;;;;;;;;;;;;;;;5036257;28;19988;-78
2022/07/11 02:53:12;;;;;;;;;;;;;;;;;;5039007;28;19925;-79
2022/07/11 02:55:38;;;;;;;;;;;;;;;;;;5039674;28;19979;-78
2022/07/11 02:58:05;;;;;;;;;;;;;;;;;;5039572;28;19972;-78
2022/07/11 03:00:32;;;;;;;;;;;;;;;;;;5038870;28;20019;-78
2022/07/11 03:02:59;;;;;;;;;;;;;;;;;;5038278;28;19967;-78
2022/07/11 03:05:25;;;;;;;;;;;;;;;;;;5038214;28;19987;-78
2022/07/11 03:07:53;;;;;;;;;;;;;;;;;;5037333;28;19964;-78
2022/07/11 03:10:19;;;;;;;;;;;;;;;;;;5037851;28;19929;-78
2022/07/11 03:12:46;;;;;;;;;;;;;;;;;;5037797;28;19930;-78
2022/07/11 03:15:12;;;;;;;;;;;;;;;;;;5037743;28;19932;-78
2022/07/11 03:17:39;;;;;;;;;;;;;;;;;;5036885;28;19964;-78
2022/07/11 03:20:06;;;;;;;;;;;;;;;;;;5037237;28;19947;-79
2022/07/11 03:22:33;;;;;;;;;;;;;;;;;;5038624;28;19925;-78
2022/07/11 03:25:03;;;;;;;;;;;;;;;;;;5049068;28;19929;-77
2022/07/11 03:27:29;;;;;;;;;;;;;;;;;;5050970;28;19929;-78
2022/07/11 03:29:56;;;;;;;;;;;;;;;;;;5051322;28;19952;-77
2022/07/11 03:32:22;;;;;;;;;;;;;;;;;;5049184;28;20356;-78
2022/07/11 03:37:29;;;;;;;;;;;;;;;;;;5040708;28;20559;-78
2022/07/11 03:39:56;;;;;;;;;;;;;;;;;;5041250;28;20466;-76
2022/07/11 03:42:23;;;;;;;;;;;;;;;;;;5038313;28;20019;-77
2022/07/11 03:44:51;;;;;;;;;;;;;;;;;;5037405;28;19935;-77
2022/07/11 03:47:17;;;;;;;;;;;;;;;;;;5036935;28;19925;-77
2022/07/11 03:49:43;;;;;;;;;;;;;;;;;;5036042;28;20011;-76
2022/07/11 03:52:10;;;;;;;;;;;;;;;;;;5038027;28;20052;-77
2022/07/11 03:54:36;;;;;;;;;;;;;;;;;;5037109;28;19975;-77
2022/07/11 03:57:03;;;;;;;;;;;;;;;;;;5036138;28;20011;-77
2022/07/11 03:59:31;;;;;;;;;;;;;;;;;;5036247;28;19929;-77
2022/07/11 04:01:57;;;;;;;;;;;;;;;;;;5033920;28;20008;-77
2022/07/11 04:04:24;;;;;;;;;;;;;;;;;;5033052;28;19979;-76
2022/07/11 04:06:50;;;;;;;;;;;;;;;;;;5034854;28;19925;-76
2022/07/11 04:09:17;;;;;;;;;;;;;;;;;;5043420;28;19925;-77
2022/07/11 04:11:43;;;;;;;;;;;;;;;;;;5045538;28;20024;-76
2022/07/11 04:14:09;;;;;;;;;;;;;;;;;;5036279;28;19964;-77
2022/07/11 04:16:37;;;;;;;;;;;;;;;;;;5032073;28;19926;-79
2022/07/11 04:19:04;;;;;;;;;;;;;;;;;;5032333;28;19925;-76
2022/07/11 04:21:30;;;;;;;;;;;;;;;;;;5031965;28;19976;-76
2022/07/11 04:23:57;;;;;;;;;;;;;;;;;;5032321;28;19959;-78
2022/07/11 04:26:23;;;;;;;;;;;;;;;;;;5032101;28;20036;-80
2022/07/11 04:28:49;;;;;;;;;;;;;;;;;;5032302;28;19960;-77
2022/07/11 04:31:16;;;;;;;;;;;;;;;;;;5031982;28;20384;-78
2022/07/11 04:33:44;;;;;;;;;;;;;;;;;;5032004;28;20377;-78
2022/07/11 04:36:11;;;;;;;;;;;;;;;;;;5032130;28;19936;-78
2022/07/11 04:38:37;;;;;;;;;;;;;;;;;;5032620;28;19925;-77
2022/07/11 04:41:03;;;;;;;;;;;;;;;;;;5032295;28;20443;-76
2022/07/11 04:43:30;;;;;;;;;;;;;;;;;;5031705;28;20016;-78
2022/07/11 04:45:57;;;;;;;;;;;;;;;;;;5031790;28;19971;-77
2022/07/11 04:48:23;;;;;;;;;;;;;;;;;;5031883;28;20004;-77
2022/07/11 04:50:51;;;;;;;;;;;;;;;;;;5032240;28;20016;-76
2022/07/11 04:53:17;;;;;;;;;;;;;;;;;;5032896;28;19925;-77
2022/07/11 04:55:44;;;;;;;;;;;;;;;;;;5031916;28;19931;-77
2022/07/11 04:58:11;;;;;;;;;;;;;;;;;;5034930;28;19933;-76
2022/07/11 05:00:37;;;;;;;;;;;;;;;;;;5037109;28;19972;-79
2022/07/11 05:03:04;;;;;;;;;;;;;;;;;;5039687;28;19964;-79
2022/07/11 05:05:31;;;;;;;;;;;;;;;;;;5039257;28;19925;-79
2022/07/11 05:07:59;;;;;;;;;;;;;;;;;;5039477;28;19925;-79
2022/07/11 05:10:25;;;;;;;;;;;;;;;;;;5053198;28;19913;-78
2022/07/11 05:12:52;;;;;;;;;;;;;;;;;;5053818;28;19925;-79
2022/07/11 05:15:18;;;;;;;;;;;;;;;;;;5048034;28;19971;-79
2022/07/11 05:17:45;;;;;;;;;;;;;;;;;;5042209;28;19925;-78
2022/07/11 05:20:11;;;;;;;;;;;;;;;;;;5040793;28;19925;-78
2022/07/11 05:22:38;;;;;;;;;;;;;;;;;;5039648;28;19956;-79
2022/07/11 05:25:06;;;;;;;;;;;;;;;;;;5040108;28;19991;-79
2022/07/11 05:27:33;;;;;;;;;;;;;;;;;;5040114;28;19965;-78
2022/07/11 05:29:59;;;;;;;;;;;;;;;;;;5039332;28;20015;-78
2022/07/11 05:32:25;;;;;;;;;;;;;;;;;;5040070;28;20392;-79
2022/07/11 05:34:52;;;;;;;;;;;;;;;;;;5039848;28;20004;-79
2022/07/11 05:37:18;;;;;;;;;;;;;;;;;;5039687;28;19960;-79
2022/07/11 05:39:45;;;;;;;;;;;;;;;;;;5038832;28;19926;-78
2022/07/11 05:42:14;;;;;;;;;;;;;;;;;;5039963;28;19964;-79
2022/07/11 05:44:40;;;;;;;;;;;;;;;;;;5052557;22;19936;-79
2022/07/11 05:47:07;;;;;;;;;;;;;;;;;;5052730;28;19925;-79
2022/07/11 05:49:33;;;;;;;;;;;;;;;;;;5054842;28;19968;-78
2022/07/11 05:52:00;;;;;;;;;;;;;;;;;;5055410;28;19968;-79
2022/07/11 05:54:26;;;;;;;;;;;;;;;;;;5056419;28;20051;-79
2022/07/11 05:56:53;;;;;;;;;;;;;;;;;;5055482;28;20023;-79
2022/07/11 05:59:21;;;;;;;;;;;;;;;;;;5053044;28;19968;-82
2022/07/11 06:01:47;;;;;;;;;;;;;;;;;;5035123;28;19947;-79
2022/07/11 06:04:17;;;;;;;;;;;;;;;;;;5035874;28;20406;-79
2022/07/11 06:06:43;;;;;;;;;;;;;;;;;;5035975;28;20479;-79
2022/07/11 06:09:09;;;;;;;;;;;;;;;;;;5034953;28;20024;-79
2022/07/11 06:11:36;;;;;;;;;;;;;;;;;;5036160;28;19979;-80
2022/07/11 06:14:02;;;;;;;;;;;;;;;;;;5034934;28;19925;-78
2022/07/11 06:16:30;;;;;;;;;;;;;;;;;;5034961;28;19925;-78
2022/07/11 06:18:57;;;;;;;;;;;;;;;;;;5034868;28;20023;-78
2022/07/11 06:21:23;;;;;;;;;;;;;;;;;;5035072;28;19925;-77
2022/07/11 06:23:49;;;;;;;;;;;;;;;;;;5038471;28;19988;-77
2022/07/11 06:26:16;;;;;;;;;;;;;;;;;;5048639;28;19948;-79
2022/07/11 06:28:43;;;;;;;;;;;;;;;;;;5049879;28;19925;-79
2022/07/11 06:31:09;;;;;;;;;;;;;;;;;;5042418;28;19968;-77
2022/07/11 06:33:37;;;;;;;;;;;;;;;;;;5034736;28;19925;-77
2022/07/11 06:36:04;;;;;;;;;;;;;;;;;;5033410;28;20004;-77
2022/07/11 06:38:31;;;;;;;;;;;;;;;;;;5033999;28;19925;-77
2022/07/11 06:40:57;;;;;;;;;;;;;;;;;;5033796;28;19931;-77
2022/07/11 06:43:24;;;;;;;;;;;;;;;;;;5034326;28;19958;-78
2022/07/11 06:45:51;;;;;;;;;;;;;;;;;;5034941;28;19925;-78
2022/07/11 06:48:17;;;;;;;;;;;;;;;;;;5035577;28;19983;-77
2022/07/11 06:50:45;;;;;;;;;;;;;;;;;;5035837;28;19925;-77
2022/07/11 06:53:12;;;;;;;;;;;;;;;;;;5036495;28;19931;-77
2022/07/11 06:55:38;;;;;;;;;;;;;;;;;;5036049;28;19925;-78
2022/07/11 06:58:06;;;;;;;;;;;;;;;;;;5035728;28;19972;-78
2022/07/11 07:00:32;;;;;;;;;;;;;;;;;;5035252;28;19925;-78
2022/07/11 07:02:59;;;;;;;;;;;;;;;;;;5037142;28;19929;-77
2022/07/11 07:05:25;;;;;;;;;;;;;;;;;;5052377;28;19929;-78
2022/07/11 07:07:53;;;;;;;;;;;;;;;;;;5043631;28;20019;-78
2022/07/11 07:10:20;;;;;;;;;;;;;;;;;;5038076;28;19925;-78
2022/07/11 07:12:46;;;;;;;;;;;;;;;;;;5034413;28;19996;-78
2022/07/11 07:15:13;;;;;;;;;;;;;;;;;;5032948;28;19960;-79
2022/07/11 07:17:39;;;;;;;;;;;;;;;;;;5032170;28;19995;-79
2022/07/11 07:20:08;;;;;;;;;;;;;;;;;;5031627;28;20374;-78
2022/07/11 07:22:34;;;;;;;;;;;;;;;;;;5032500;28;19929;-78
2022/07/11 07:25:02;;;;;;;;;;;;;;;;;;5031603;28;19979;-78
2022/07/11 07:27:28;;;;;;;;;;;;;;;;;;5031721;28;19996;-78
2022/07/11 07:29:55;;;;;;;;;;;;;;;;;;5032261;28;20015;-78
2022/07/11 07:32:21;;;;;;;;;;;;;;;;;;5032334;28;19936;-78
2022/07/11 07:34:48;;;;;;;;;;;;;;;;;;5030305;28;20008;-78
2022/07/11 07:37:14;;;;;;;;;;;;;;;;;;5032000;28;19973;-80
2022/07/11 07:39:52;;;;;;;;;;;;;;;;;;5033343;28;19947;-79
2022/07/11 07:42:20;;;;;;;;;;;;;;;;;;5033337;28;19925;-79
2022/07/11 07:44:47;;;;;;;;;;;;;;;;;;5032246;28;20458;-79
2022/07/11 07:47:13;;;;;;;;;;;;;;;;;;5032920;28;19965;-79
2022/07/11 07:49:40;;;;;;;;;;;;;;;;;;5033179;28;20385;-79
2022/07/11 07:52:06;;;;;;;;;;;;;;;;;;5033916;28;19972;-79
2022/07/11 07:54:33;;;;;;;;;;;;;;;;;;5033289;28;19986;-79
2022/07/11 07:56:59;;;;;;;;;;;;;;;;;;5033451;28;20402;-79
2022/07/11 07:59:27;;;;;;;;;;;;;;;;;;5033845;28;19933;-79
2022/07/11 08:01:52;;;;;;;;;;;;;;;;;;5033454;28;20452;-79
2022/07/11 08:04:19;;;;;;;;;;;;;;;;;;5033583;28;19932;-79
2022/07/11 08:06:45;;;;;;;;;;;;;;;;;;5033085;28;19932;-79
2022/07/11 08:09:12;;;;;;;;;;;;;;;;;;5033620;28;19925;-79
2022/07/11 08:11:38;;;;;;;;;;;;;;;;;;5032458;28;20318;-78
2022/07/11 08:14:07;;;;;;;;;;;;;;;;;;5033283;28;20043;-79
2022/07/11 08:16:35;;;;;;;;;;;;;;;;;;5035404;28;19975;-79
2022/07/11 08:19:03;;;;;;;;;;;;;;;;;;5033941;28;19968;-78
2022/07/11 08:21:30;;;;;;;;;;;;;;;;;;5032648;28;19925;-79
2022/07/11 08:23:56;;;;;;;;;;;;;;;;;;5033166;28;19929;-79
2022/07/11 08:26:23;;;;;;;;;;;;;;;;;;5032268;28;20015;-79
2022/07/11 08:28:51;;;;;;;;;;;;;;;;;;5032596;28;19931;-79
2022/07/11 08:31:17;;;;;;;;;;;;;;;;;;5040243;28;19929;-78
2022/07/11 08:33:45;;;;;;;;;;;;;;;;;;5039003;28;20319;-80
2022/07/11 08:36:12;;;;;;;;;;;;;;;;;;5037422;28;19925;-78
2022/07/11 08:38:39;;;;;;;;;;;;;;;;;;5035782;28;20019;-77
2022/07/11 08:41:05;;;;;;;;;;;;;;;;;;5040646;28;19932;-78
2022/07/11 08:43:32;;;;;;;;;;;;;;;;;;5041008;28;19971;-79
2022/07/11 08:46:00;;;;;;;;;;;;;;;;;;5035865;28;19925;-79
2022/07/11 08:48:27;;;;;;;;;;;;;;;;;;5035384;28;19960;-78
2022/07/11 08:50:54;;;;;;;;;;;;;;;;;;5037912;28;19932;-82
2022/07/11 08:53:21;;;;;;;;;;;;;;;;;;5036967;28;19952;-79
2022/07/11 08:55:47;;;;;;;;;;;;;;;;;;5034526;28;20096;-79
2022/07/11 08:58:15;;;;;;;;;;;;;;;;;;5034703;28;19925;-80
2022/07/11 09:00:42;;;;;;;;;;;;;;;;;;5035168;28;19932;-80
2022/07/11 09:03:13;;;;;;;;;;;;;;;;;;5033963;28;19929;-80
2022/07/11 09:05:40;;;;;;;;;;;;;;;;;;5034432;28;19964;-79
2022/07/11 09:08:08;;;;;;;;;;;;;;;;;;5034744;28;19960;-80
2022/07/11 09:10:38;;;;;;;;;;;;;;;;;;5034767;28;19960;-80
2022/07/11 09:13:06;;;;;;;;;;;;;;;;;;5035613;28;19925;-81
2022/07/11 09:15:33;;;;;;;;;;;;;;;;;;5036312;28;19936;-79
2022/07/11 09:18:00;;;;;;;;;;;;;;;;;;5036866;28;19929;-76
2022/07/11 09:25:19;;;;;;;;;;;;;;;;;;5032816;28;19925;-76
2022/07/11 09:26:13;;;;;;;;;;;;;;;;;;4996929;28;19952;-78
2022/07/11 09:28:40;;;;;;;;;;;;;;;;;;5033786;28;20024;-75
2022/07/11 09:31:15;;;;;;;;;;;;;;;;;;5033148;28;19936;-76
2022/07/11 09:33:57;;;;;;;;;;;;;;;;;;5033224;28;20016;-76
2022/07/11 09:36:51;;;;;;;;;;;;;;;;;;5033220;28;19931;-76
2022/07/11 09:39:28;;;;;;;;;;;;;;;;;;4952813;29;19926;-77
2022/07/11 09:41:54;;;;;;;;;;;;;;;;;;4965387;28;19933;-78
2022/07/11 09:44:22;;;;;;;;;;;;;;;;;;5033005;28;19951;-78
2022/07/11 09:46:49;;;;;;;;;;;;;;;;;;5031421;28;19929;-77
2022/07/11 09:49:16;;;;;;;;;;;;;;;;;;5033014;28;20453;-77
2022/07/11 09:51:43;;;;;;;;;;;;;;;;;;5033470;28;19925;-77
2022/07/11 09:54:10;;;;;;;;;;;;;;;;;;5033617;28;19941;-76
2022/07/11 09:56:40;;;;;;;;;;;;;;;;;;5032805;28;19972;-77
2022/07/11 09:59:07;;;;;;;;;;;;;;;;;;5033647;28;19973;-77
2022/07/11 10:01:34;;;;;;;;;;;;;;;;;;5033909;28;20420;-76
2022/07/11 10:04:00;;;;;;;;;;;;;;;;;;5033378;28;19925;-77
2022/07/11 10:06:27;;;;;;;;;;;;;;;;;;5032908;28;20448;-77
2022/07/11 10:08:54;;;;;;;;;;;;;;;;;;5033699;28;19940;-77
2022/07/11 10:11:21;;;;;;;;;;;;;;;;;;5033669;28;19931;-77
2022/07/11 10:13:49;;;;;;;;;;;;;;;;;;5033291;28;19951;-77
2022/07/11 10:16:38;;;;;;;;;;;;;;;;;;5033188;28;19968;-77
2022/07/11 10:19:10;;;;;;;;;;;;;;;;;;5033982;28;20015;-78
2022/07/11 10:21:41;;;;;;;;;;;;;;;;;;5033590;28;19951;-77
2022/07/11 10:24:16;;;;;;;;;;;;;;;;;;5033112;28;19926;-77
2022/07/11 10:26:47;;;;;;;;;;;;;;;;;;5034044;28;20036;-77
2022/07/11 10:29:18;;;;;;;;;;;;;;;;;;5032455;28;19968;-77
2022/07/11 10:31:47;;;;;;;;;;;;;;;;;;5039671;28;19931;-77
2022/07/11 10:34:18;;;;;;;;;;;;;;;;;;5033743;28;20020;-78
2022/07/11 10:36:45;;;;;;;;;;;;;;;;;;5034367;28;19936;-77
2022/07/11 10:39:18;;;;;;;;;;;;;;;;;;5032688;28;19925;-75
2022/07/11 10:41:45;;;;;;;;;;;;;;;;;;5032771;28;19948;-77
2022/07/11 10:44:11;;;;;;;;;;;;;;;;;;5033221;28;19952;-77
2022/07/11 10:46:39;;;;;;;;;;;;;;;;;;5033691;28;19935;-76
2022/07/11 10:49:10;;;;;;;;;;;;;;;;;;5036518;28;19972;-76
2022/07/11 10:51:43;;;;;;;;;;;;;;;;;;5036822;28;19971;-76
2022/07/11 10:54:13;;;;;;;;;;;;;;;;;;5033108;28;19925;-77
2022/07/11 10:56:47;;;;;;;;;;;;;;;;;;5032624;28;20015;-77
2022/07/11 10:59:15;;;;;;;;;;;;;;;;;;5032508;28;19960;-77
2022/07/11 11:02:00;;;;;;;;;;;;;;;;;;5032372;28;20303;-77
2022/07/11 11:04:44;;;;;;;;;;;;;;;;;;5032345;28;19925;-77
2022/07/11 11:07:25;;;;;;;;;;;;;;;;;;5031622;28;20281;-77
2022/07/11 11:09:52;;;;;;;;;;;;;;;;;;5031131;28;19932;-77
2022/07/11 11:12:18;;;;;;;;;;;;;;;;;;5031848;28;20016;-77
2022/07/11 11:14:45;;;;;;;;;;;;;;;;;;5032117;28;19976;-77
2022/07/11 11:17:30;;;;;;;;;;;;;;;;;;5020021;28;19932;-77
2022/07/11 11:19:58;;;;;;;;;;;;;;;;;;5012567;28;20455;-77
2022/07/11 11:22:25;;;;;;;;;;;;;;;;;;5013243;28;19929;-76
2022/07/11 11:24:53;;;;;;;;;;;;;;;;;;5012307;28;19926;-77
2022/07/11 11:27:21;;;;;;;;;;;;;;;;;;5011959;28;19951;-76
2022/07/11 11:29:48;;;;;;;;;;;;;;;;;;5011460;28;19930;-76
2022/07/11 11:32:14;;;;;;;;;;;;;;;;;;5011935;28;20024;-77
2022/07/11 11:34:41;;;;;;;;;;;;;;;;;;5011967;28;20020;-76
2022/07/11 11:37:09;;;;;;;;;;;;;;;;;;5011726;28;19930;-76
2022/07/11 11:39:38;;;;;;;;;;;;;;;;;;5011443;28;19925;-77
2022/07/11 11:42:06;;;;;;;;;;;;;;;;;;5011336;28;19929;-76
2022/07/11 11:44:33;;;;;;;;;;;;;;;;;;5013776;28;20020;-76
2022/07/11 11:46:59;;;;;;;;;;;;;;;;;;5015463;28;20004;-77
2022/07/11 11:49:26;;;;;;;;;;;;;;;;;;5012773;28;19932;-77
2022/07/11 11:51:54;;;;;;;;;;;;;;;;;;5011544;28;19926;-77
2022/07/11 11:54:24;;;;;;;;;;;;;;;;;;5011388;28;20604;-77
2022/07/11 11:56:50;;;;;;;;;;;;;;;;;;5011028;28;19925;-77
2022/07/11 11:59:17;;;;;;;;;;;;;;;;;;5013908;28;19925;-77
2022/07/11 12:01:44;;;;;;;;;;;;;;;;;;5031098;28;19983;-77
2022/07/11 12:04:11;;;;;;;;;;;;;;;;;;5030894;28;20587;-77
2022/07/11 12:06:40;;;;;;;;;;;;;;;;;;5032209;28;20004;-77
2022/07/11 12:09:09;;;;;;;;;;;;;;;;;;5035022;28;20380;-77
2022/07/11 12:11:37;;;;;;;;;;;;;;;;;;5034381;28;19929;-77
2022/07/11 12:14:05;;;;;;;;;;;;;;;;;;5035736;28;19927;-78
2022/07/11 12:16:42;;;;;;;;;;;;;;;;;;5035000;28;20011;-78
2022/07/11 12:19:10;;;;;;;;;;;;;;;;;;5034841;28;20388;-77
2022/07/11 12:21:37;;;;;;;;;;;;;;;;;;5034849;28;19926;-77
2022/07/11 12:24:04;;;;;;;;;;;;;;;;;;5034510;28;19932;-77
2022/07/11 12:26:33;;;;;;;;;;;;;;;;;;5034656;28;20400;-78
2022/07/11 12:29:03;;;;;;;;;;;;;;;;;;5036139;28;19937;-77
2022/07/11 12:31:42;;;;;;;;;;;;;;;;;;5036207;28;19960;-77
2022/07/11 12:34:08;;;;;;;;;;;;;;;;;;5034616;28;20092;-77
2022/07/11 12:36:34;;;;;;;;;;;;;;;;;;5034458;28;19964;-77
2022/07/11 12:39:01;;;;;;;;;;;;;;;;;;5033922;28;19972;-77
2022/07/11 12:46:47;;;;;;;;;;;;;;;;;;5036227;28;20028;-77
2022/07/11 12:49:13;;;;;;;;;;;;;;;;;;5039184;28;20008;-77
2022/07/11 12:51:40;;;;;;;;;;;;;;;;;;5040608;28;19972;-78
2022/07/11 12:54:08;;;;;;;;;;;;;;;;;;5040416;28;20011;-77
2022/07/11 12:56:35;;;;;;;;;;;;;;;;;;5044236;28;19983;-76
2022/07/11 12:59:02;;;;;;;;;;;;;;;;;;5047470;28;19926;-75
2022/07/11 13:01:29;;;;;;;;;;;;;;;;;;5044701;28;20292;-76
2022/07/11 13:03:58;;;;;;;;;;;;;;;;;;5043724;28;19925;-75
2022/07/11 13:09:04;;;;;;;;;;;;;;;;;;5032591;28;19955;-76
2022/07/11 13:11:31;;;;;;;;;;;;;;;;;;5033741;28;20001;-76
2022/07/11 13:13:58;;;;;;;;;;;;;;;;;;5040670;28;20024;-76
2022/07/11 13:16:25;;;;;;;;;;;;;;;;;;5042578;28;19964;-76
2022/07/11 13:18:51;;;;;;;;;;;;;;;;;;5046935;28;19925;-76
2022/07/11 13:21:19;;;;;;;;;;;;;;;;;;5053041;28;20006;-76
2022/07/11 13:23:46;;;;;;;;;;;;;;;;;;5053397;28;19925;-76
2022/07/11 13:26:13;;;;;;;;;;;;;;;;;;5052711;28;19971;-77
2022/07/11 13:28:39;;;;;;;;;;;;;;;;;;5049757;28;19929;-76
2022/07/11 13:31:06;;;;;;;;;;;;;;;;;;5033614;28;19926;-76
2022/07/11 13:33:33;;;;;;;;;;;;;;;;;;5033001;28;19979;-76
2022/07/11 13:35:59;;;;;;;;;;;;;;;;;;5032610;28;20012;-76
2022/07/11 13:38:27;;;;;;;;;;;;;;;;;;5033036;28;20360;-76
2022/07/11 13:40:54;;;;;;;;;;;;;;;;;;5033343;28;19960;-76
2022/07/11 13:43:20;;;;;;;;;;;;;;;;;;5032748;28;20020;-76
2022/07/11 13:45:47;;;;;;;;;;;;;;;;;;5033699;28;20021;-76
2022/07/11 13:48:13;;;;;;;;;;;;;;;;;;5032872;28;19968;-75
2022/07/11 13:50:40;;;;;;;;;;;;;;;;;;5032541;28;19925;-76
2022/07/11 13:53:06;;;;;;;;;;;;;;;;;;5032726;28;19972;-75
2022/07/11 13:55:34;;;;;;;;;;;;;;;;;;5032012;28;19925;-76
2022/07/11 13:58:01;;;;;;;;;;;;;;;;;;5031947;28;20465;-75
2022/07/11 14:00:28;;;;;;;;;;;;;;;;;;5044168;28;19932;-77
2022/07/11 14:02:55;;;;;;;;;;;;;;;;;;5052202;28;19980;-76
2022/07/11 14:05:21;;;;;;;;;;;;;;;;;;5052476;28;19975;-76
2022/07/11 14:07:48;;;;;;;;;;;;;;;;;;5052368;28;19980;-77
2022/07/11 14:10:15;;;;;;;;;;;;;;;;;;5052079;28;19968;-77
2022/07/11 14:12:42;;;;;;;;;;;;;;;;;;5052220;28;20364;-76
2022/07/11 14:15:09;;;;;;;;;;;;;;;;;;5052523;28;20009;-77
2022/07/11 14:17:36;;;;;;;;;;;;;;;;;;5051679;28;20315;-76
2022/07/11 14:20:02;;;;;;;;;;;;;;;;;;5051923;28;19986;-78
2022/07/11 14:22:29;;;;;;;;;;;;;;;;;;5051771;28;19979;-76
2022/07/11 14:24:57;;;;;;;;;;;;;;;;;;5051783;28;22161;-77
2022/07/11 14:27:24;;;;;;;;;;;;;;;;;;5052858;28;19928;-77
2022/07/11 14:29:52;;;;;;;;;;;;;;;;;;5052161;28;20024;-78
2022/07/11 14:32:20;;;;;;;;;;;;;;;;;;5052681;28;19931;-76
2022/07/11 14:34:46;;;;;;;;;;;;;;;;;;5052720;28;19932;-77
2022/07/11 14:37:13;;;;;;;;;;;;;;;;;;5042901;28;19963;-77
2022/07/11 14:39:39;;;;;;;;;;;;;;;;;;5032759;28;20564;-76
2022/07/11 14:42:07;;;;;;;;;;;;;;;;;;5032713;28;19928;-76
2022/07/11 14:44:34;;;;;;;;;;;;;;;;;;5032877;28;20384;-76
2022/07/11 14:47:02;;;;;;;;;;;;;;;;;;5031980;28;19932;-77
2022/07/11 14:49:28;;;;;;;;;;;;;;;;;;5031442;28;19929;-76
2022/07/11 14:51:55;;;;;;;;;;;;;;;;;;5031008;28;19929;-77
2022/07/11 14:54:22;;;;;;;;;;;;;;;;;;5031546;28;20299;-76
2022/07/11 14:56:49;;;;;;;;;;;;;;;;;;5030866;28;20016;-76
2022/07/11 14:59:15;;;;;;;;;;;;;;;;;;5033673;28;19934;-75
2022/07/11 15:01:42;;;;;;;;;;;;;;;;;;5051225;28;19964;-76
2022/07/11 15:04:09;;;;;;;;;;;;;;;;;;5051154;28;19998;-75
2022/07/11 15:12:28;;;;;;;;;;;;;;;;;;4995693;28;20402;-75
2022/07/11 15:14:54;;;;;;;;;;;;;;;;;;5057793;28;19984;-76
2022/07/11 15:17:21;;;;;;;;;;;;;;;;;;5058997;28;19935;-76
2022/07/11 15:19:49;;;;;;;;;;;;;;;;;;5059844;28;19959;-76
2022/07/11 15:22:16;;;;;;;;;;;;;;;;;;5057198;28;19983;-76
2022/07/11 15:24:43;;;;;;;;;;;;;;;;;;5051581;28;19925;-76
2022/07/11 15:27:09;;;;;;;;;;;;;;;;;;5050479;28;19979;-76
2022/07/11 15:29:36;;;;;;;;;;;;;;;;;;5050649;28;20418;-76
2022/07/11 15:32:03;;;;;;;;;;;;;;;;;;5050658;28;19932;-77
2022/07/11 15:34:30;;;;;;;;;;;;;;;;;;5051323;28;19948;-76
2022/07/11 15:36:57;;;;;;;;;;;;;;;;;;5051299;28;19925;-75
2022/07/11 15:39:24;;;;;;;;;;;;;;;;;;5051466;28;19975;-76
2022/07/11 15:41:50;;;;;;;;;;;;;;;;;;5050817;28;19997;-76
2022/07/11 15:44:17;;;;;;;;;;;;;;;;;;5054072;28;19979;-74
2022/07/11 15:46:44;;;;;;;;;;;;;;;;;;5053356;28;20379;-77
2022/07/11 15:49:10;;;;;;;;;;;;;;;;;;5051522;28;20020;-74
2022/07/11 15:51:37;;;;;;;;;;;;;;;;;;5050279;28;19986;-75
2022/07/11 15:54:05;;;;;;;;;;;;;;;;;;5050476;28;20012;-75
2022/07/11 15:56:31;;;;;;;;;;;;;;;;;;5049971;28;19972;-74
2022/07/11 15:58:58;;;;;;;;;;;;;;;;;;5050028;28;19933;-74
2022/07/11 16:01:25;;;;;;;;;;;;;;;;;;5029992;28;19960;-75
2022/07/11 16:03:52;;;;;;;;;;;;;;;;;;5030681;28;19929;-74
2022/07/11 16:06:19;;;;;;;;;;;;;;;;;;5029818;28;19925;-74
2022/07/11 16:08:46;;;;;;;;;;;;;;;;;;5029975;28;20020;-74
2022/07/11 16:11:15;;;;;;;;;;;;;;;;;;5030513;28;20036;-76
2022/07/11 16:13:41;;;;;;;;;;;;;;;;;;5030338;28;19925;-75
2022/07/11 16:16:08;;;;;;;;;;;;;;;;;;5030088;28;19975;-75
2022/07/11 16:18:34;;;;;;;;;;;;;;;;;;5010362;28;20377;-73
2022/07/11 16:21:02;;;;;;;;;;;;;;;;;;5010477;28;19932;-74
2022/07/11 16:23:29;;;;;;;;;;;;;;;;;;5010209;28;20028;-74
2022/07/11 16:25:55;;;;;;;;;;;;;;;;;;5010368;28;19925;-75
2022/07/11 16:28:23;;;;;;;;;;;;;;;;;;5009954;28;19926;-74
2022/07/11 16:30:49;;;;;;;;;;;;;;;;;;5010394;28;19972;-76
2022/07/11 16:33:16;;;;;;;;;;;;;;;;;;5010387;28;19963;-75
2022/07/11 16:35:42;;;;;;;;;;;;;;;;;;5010162;28;20418;-75
2022/07/11 16:38:09;;;;;;;;;;;;;;;;;;5009774;28;20335;-74
2022/07/11 16:43:23;;;;;;;;;;;;;;;;;;5014110;28;20303;-79
2022/07/11 16:45:53;;;;;;;;;;;;;;;;;;5016773;28;20402;-77
2022/07/11 16:48:20;;;;;;;;;;;;;;;;;;5015983;28;19932;-78
2022/07/11 16:50:46;;;;;;;;;;;;;;;;;;5013851;28;20518;-78
2022/07/11 16:53:15;;;;;;;;;;;;;;;;;;5016044;28;19925;-79
2022/07/11 16:55:42;;;;;;;;;;;;;;;;;;5019125;28;19932;-77
2022/07/11 16:58:09;;;;;;;;;;;;;;;;;;5018589;28;20396;-78
2022/07/11 17:00:35;;;;;;;;;;;;;;;;;;5042871;28;20007;-79
2022/07/11 17:03:04;;;;;;;;;;;;;;;;;;5056937;28;19925;-80
2022/07/11 17:05:31;;;;;;;;;;;;;;;;;;5057863;28;20302;-78
2022/07/11 17:10:41;;;;;;;;;;;;;;;;;;5057119;28;20028;-78
2022/07/11 17:13:08;;;;;;;;;;;;;;;;;;5057741;28;19929;-79